createdAt,value
2023-03-29T00:00:50.140Z,-0.09
2023-03-29T00:03:18.620Z,-0.25
2023-03-29T00:05:46.937Z,-0.14
2023-03-29T00:08:15.341Z,-0.13
2023-03-29T00:10:43.543Z,-0.14
2023-03-29T00:13:11.785Z,-0.37
2023-03-29T00:15:39.946Z,-0.70
2023-03-29T00:18:09.457Z,-0.61
2023-03-29T00:20:37.710Z,-0.54
2023-03-29T00:23:06.226Z,-0.36
2023-03-29T00:25:34.391Z,-0.67
2023-03-29T00:28:02.535Z,-0.34
2023-03-29T00:30:31.215Z,-0.29
2023-03-29T00:32:59.465Z,-0.50
2023-03-29T00:35:29.282Z,-0.42
2023-03-29T00:37:57.746Z,-0.35
2023-03-29T00:40:27.788Z,-0.35
2023-03-29T00:42:56.929Z,-0.29
2023-03-29T00:45:27.557Z,-0.29
2023-03-29T00:48:00.037Z,-0.48
2023-03-29T00:50:34.402Z,-0.57
2023-03-29T00:53:05.722Z,-0.42
2023-03-29T00:55:38.598Z,-0.47
2023-03-29T00:58:13.002Z,-0.67
2023-03-29T01:00:45.493Z,-0.44
2023-03-29T01:03:24.666Z,-0.49
2023-03-29T01:06:00.140Z,-0.68
2023-03-29T01:08:31.837Z,-0.65
2023-03-29T01:11:04.772Z,-0.61
2023-03-29T01:13:39.417Z,-0.44
2023-03-29T01:16:10.577Z,-0.47
2023-03-29T01:18:39.750Z,-0.38
2023-03-29T01:21:19.478Z,-0.30
2023-03-29T01:23:58.295Z,-0.34
2023-03-29T01:26:35.960Z,-0.36
2023-03-29T01:29:10.713Z,-0.15
2023-03-29T01:31:42.255Z,-0.19
2023-03-29T01:34:13.796Z,-0.22
2023-03-29T01:36:49.604Z,-0.09
2023-03-29T01:39:19.022Z,-0.26
2023-03-29T01:41:59.018Z,-0.15
2023-03-29T01:44:35.578Z,-0.13
2023-03-29T01:47:11.984Z,-0.12
2023-03-29T01:49:45.370Z,-0.29
2023-03-29T01:52:18.467Z,-0.33
2023-03-29T01:54:53.887Z,-0.27
2023-03-29T01:57:25.097Z,-0.57
2023-03-29T01:59:57.614Z,-0.29
2023-03-29T02:02:30.110Z,-0.35
2023-03-29T02:04:59.328Z,-0.44
2023-03-29T02:07:30.589Z,-0.35
2023-03-29T02:10:00.304Z,-0.33
2023-03-29T02:12:28.850Z,-0.22
2023-03-29T02:15:00.735Z,-0.18
2023-03-29T02:17:31.546Z,-0.29
2023-03-29T02:20:13.721Z,-0.29
2023-03-29T02:22:47.925Z,-0.19
2023-03-29T02:25:18.239Z,-0.26
2023-03-29T02:27:47.061Z,-0.14
2023-03-29T02:30:19.284Z,-0.10
2023-03-29T02:32:55.918Z,-0.09
2023-03-29T02:35:34.332Z,-0.01
2023-03-29T02:38:05.563Z,-0.26
2023-03-29T02:40:35.878Z,-0.20
2023-03-29T02:43:07.818Z,-0.30
2023-03-29T02:45:41.149Z,-0.01
2023-03-29T02:48:13.392Z,0.13
2023-03-29T02:50:45.282Z,-0.02
2023-03-29T02:53:17.923Z,-0.12
2023-03-29T02:55:49.604Z,-0.09
2023-03-29T02:58:17.760Z,-0.07
2023-03-29T03:00:50.326Z,0.04
2023-03-29T03:03:18.593Z,0.12
2023-03-29T03:05:51.186Z,0.03
2023-03-29T03:08:19.828Z,-0.14
2023-03-29T03:10:48.721Z,-0.13
2023-03-29T03:13:17.143Z,0.02
2023-03-29T03:15:49.159Z,0.14
2023-03-29T03:18:18.321Z,0.17
2023-03-29T03:20:56.082Z,0.08
2023-03-29T03:23:25.058Z,-0.05
2023-03-29T03:25:53.921Z,-0.19
2023-03-29T03:28:24.161Z,-0.23
2023-03-29T03:30:54.248Z,0.05
2023-03-29T03:33:44.843Z,-0.02
2023-03-29T03:36:34.654Z,-0.07
2023-03-29T03:39:06.031Z,0.11
2023-03-29T03:41:34.553Z,0.08
2023-03-29T03:44:03.325Z,0.12
2023-03-29T03:46:33.854Z,0.05
2023-03-29T03:49:04.531Z,0.01
2023-03-29T03:51:41.911Z,-0.11
2023-03-29T03:54:10.577Z,-0.06
2023-03-29T03:56:38.737Z,-0.16
2023-03-29T03:59:15.609Z,0.03
2023-03-29T04:01:55.680Z,0.03
2023-03-29T04:04:25.707Z,0.00
2023-03-29T04:07:04.776Z,-0.02
2023-03-29T04:09:41.225Z,-0.06
2023-03-29T04:12:44.950Z,-0.03
2023-03-29T04:15:13.409Z,-0.07
2023-03-29T04:17:49.271Z,-0.06
2023-03-29T04:20:31.667Z,-0.12
2023-03-29T04:23:01.487Z,-0.32
2023-03-29T04:25:30.350Z,-0.38
2023-03-29T04:28:32.492Z,-0.26
2023-03-29T04:31:21.490Z,-0.37
2023-03-29T04:34:09.653Z,-0.16
2023-03-29T04:36:38.862Z,-0.26
2023-03-29T04:39:14.713Z,-0.24
2023-03-29T04:41:44.757Z,-0.27
2023-03-29T04:44:19.241Z,-0.05
2023-03-29T04:46:47.426Z,-0.06
2023-03-29T04:49:40.375Z,-0.01
2023-03-29T04:52:14.997Z,-0.06
2023-03-29T04:54:43.489Z,-0.06
2023-03-29T04:57:34.595Z,0.10
2023-03-29T05:00:16.950Z,-0.03
2023-03-29T05:03:04.480Z,0.16
2023-03-29T05:05:36.840Z,-0.02
2023-03-29T05:08:05.180Z,-0.06
2023-03-29T05:10:47.536Z,0.01
2023-03-29T05:13:16.713Z,-0.24
2023-03-29T05:15:44.867Z,0.12
2023-03-29T05:18:13.510Z,0.09
2023-03-29T05:20:44.017Z,0.25
2023-03-29T05:23:17.510Z,0.04
2023-03-29T05:26:09.935Z,0.04
2023-03-29T05:28:39.522Z,0.45
2023-03-29T05:31:09.053Z,0.41
2023-03-29T05:33:40.637Z,0.59
2023-03-29T05:36:13.639Z,0.53
2023-03-29T05:38:46.841Z,0.52
2023-03-29T05:41:16.559Z,0.69
2023-03-29T05:44:07.464Z,0.60
2023-03-29T05:46:37.075Z,0.39
2023-03-29T05:49:06.483Z,0.69
2023-03-29T05:51:52.027Z,0.85
2023-03-29T05:54:20.668Z,0.75
2023-03-29T05:56:48.966Z,0.78
2023-03-29T05:59:18.101Z,0.72
2023-03-29T06:01:47.435Z,0.76
2023-03-29T06:04:19.044Z,1.09
2023-03-29T06:07:00.317Z,0.95
2023-03-29T06:09:28.728Z,1.13
2023-03-29T06:12:02.349Z,1.20
2023-03-29T06:14:45.659Z,0.99
2023-03-29T06:17:40.219Z,1.16
2023-03-29T06:20:10.992Z,1.22
2023-03-29T06:22:43.420Z,1.43
2023-03-29T06:25:14.172Z,1.39
2023-03-29T06:27:43.553Z,1.52
2023-03-29T06:30:14.542Z,1.63
2023-03-29T06:32:46.950Z,1.54
2023-03-29T06:35:34.558Z,1.68
2023-03-29T06:38:09.136Z,1.86
2023-03-29T06:41:04.555Z,2.02
2023-03-29T06:43:49.729Z,2.17
2023-03-29T06:46:17.986Z,2.27
2023-03-29T06:48:57.932Z,2.63
2023-03-29T06:51:33.512Z,2.44
2023-03-29T06:54:04.177Z,2.89
2023-03-29T06:56:34.199Z,2.84
2023-03-29T06:59:09.305Z,2.92
2023-03-29T07:01:48.646Z,2.87
2023-03-29T07:04:37.278Z,3.17
2023-03-29T07:07:19.781Z,3.10
2023-03-29T07:09:55.625Z,3.60
2023-03-29T07:12:49.637Z,3.39
2023-03-29T07:15:18.793Z,3.62
2023-03-29T07:18:07.594Z,3.84
2023-03-29T07:20:38.368Z,3.65
2023-03-29T07:23:09.491Z,4.22
2023-03-29T07:25:39.441Z,4.08
2023-03-29T07:28:08.195Z,4.14
2023-03-29T07:30:37.307Z,4.28
2023-03-29T07:33:13.365Z,4.36
2023-03-29T07:35:48.478Z,4.49
2023-03-29T07:38:16.722Z,4.31
2023-03-29T07:40:53.623Z,4.74
2023-03-29T07:43:40.263Z,4.93
2023-03-29T07:46:10.268Z,4.86
2023-03-29T07:48:40.240Z,4.96
2023-03-29T07:51:14.431Z,5.05
2023-03-29T07:53:56.181Z,5.30
2023-03-29T07:56:41.609Z,5.27
2023-03-29T07:59:12.712Z,5.51
2023-03-29T08:01:43.126Z,5.28
2023-03-29T08:04:37.399Z,5.59
2023-03-29T08:07:28.868Z,5.54
2023-03-29T08:10:17.720Z,5.27
2023-03-29T08:13:25.583Z,5.65
2023-03-29T08:16:12.208Z,5.95
2023-03-29T08:18:49.708Z,5.89
2023-03-29T08:21:18.488Z,6.11
2023-03-29T08:23:50.278Z,6.41
2023-03-29T08:26:25.799Z,6.32
2023-03-29T08:28:55.677Z,6.75
2023-03-29T08:31:25.480Z,6.60
2023-03-29T08:33:54.199Z,6.72
2023-03-29T08:36:41.849Z,6.45
2023-03-29T08:39:19.507Z,6.47
2023-03-29T08:42:06.645Z,6.75
2023-03-29T08:45:01.436Z,6.87
2023-03-29T08:47:38.462Z,6.98
2023-03-29T08:50:12.243Z,6.77
2023-03-29T08:52:48.302Z,6.71
2023-03-29T08:55:49.929Z,6.80
2023-03-29T08:58:45.699Z,7.01
2023-03-29T09:01:15.977Z,7.13
2023-03-29T09:04:05.006Z,7.46
2023-03-29T09:06:57.836Z,7.62
2023-03-29T09:09:36.042Z,7.87
2023-03-29T09:12:26.972Z,8.12
2023-03-29T09:15:15.342Z,8.11
2023-03-29T09:18:02.413Z,8.28
2023-03-29T09:20:46.037Z,8.74
2023-03-29T09:23:30.389Z,8.55
2023-03-29T09:26:24.171Z,8.62
2023-03-29T09:29:27.027Z,8.48
2023-03-29T09:31:57.194Z,8.27
2023-03-29T09:34:32.440Z,8.34
2023-03-29T09:37:12.551Z,8.36
2023-03-29T09:39:42.512Z,8.50
2023-03-29T09:42:17.416Z,8.66
2023-03-29T09:44:48.814Z,8.86
2023-03-29T09:47:26.309Z,9.08
2023-03-29T09:50:03.666Z,8.66
2023-03-29T09:52:33.585Z,8.78
2023-03-29T09:55:15.048Z,9.31
2023-03-29T09:57:53.359Z,9.31
2023-03-29T10:00:22.429Z,9.40
2023-03-29T10:02:54.628Z,9.31
2023-03-29T10:05:36.754Z,9.71
2023-03-29T10:08:20.237Z,9.86
2023-03-29T10:10:49.369Z,9.67
2023-03-29T10:13:22.846Z,9.39
2023-03-29T10:16:05.645Z,9.64
2023-03-29T10:18:35.006Z,9.43
2023-03-29T10:21:06.126Z,9.66
2023-03-29T10:23:35.895Z,9.45
2023-03-29T10:26:07.803Z,9.11
2023-03-29T10:28:37.753Z,8.96
2023-03-29T10:31:08.269Z,9.12
2023-03-29T10:33:37.454Z,9.37
2023-03-29T10:36:08.733Z,9.69
2023-03-29T10:38:38.522Z,9.92
2023-03-29T10:41:10.318Z,9.79
2023-03-29T10:43:40.088Z,9.67
2023-03-29T10:46:10.859Z,9.72
2023-03-29T10:48:49.469Z,10.15
2023-03-29T10:51:20.532Z,10.11
2023-03-29T10:53:49.066Z,10.44
2023-03-29T10:56:33.224Z,9.79
2023-03-29T10:59:16.576Z,9.76
2023-03-29T11:01:59.111Z,9.85
2023-03-29T11:04:40.938Z,10.24
2023-03-29T11:07:27.146Z,10.26
2023-03-29T11:10:04.765Z,9.99
2023-03-29T11:12:38.811Z,10.41
2023-03-29T11:15:32.167Z,10.92
2023-03-29T11:18:13.555Z,11.10
2023-03-29T11:20:46.333Z,10.32
2023-03-29T11:23:27.460Z,10.29
2023-03-29T11:26:07.845Z,9.79
2023-03-29T11:28:43.163Z,10.10
2023-03-29T11:31:22.772Z,10.12
2023-03-29T11:34:06.117Z,10.24
2023-03-29T11:36:44.592Z,10.15
2023-03-29T11:39:24.696Z,10.21
2023-03-29T11:41:57.456Z,10.31
2023-03-29T11:44:30.963Z,10.15
2023-03-29T11:47:03.617Z,10.05
2023-03-29T11:49:37.881Z,9.73
2023-03-29T11:52:13.522Z,9.54
2023-03-29T11:54:46.737Z,9.16
2023-03-29T11:57:21.993Z,9.13
2023-03-29T11:59:57.118Z,9.19
2023-03-29T12:02:32.192Z,9.30
2023-03-29T12:05:07.820Z,9.52
2023-03-29T12:07:42.942Z,9.81
2023-03-29T12:10:19.517Z,9.90
2023-03-29T12:12:55.882Z,9.70
2023-03-29T12:15:27.086Z,9.63
2023-03-29T12:18:02.969Z,9.48
2023-03-29T12:20:34.003Z,9.44
2023-03-29T12:23:03.808Z,9.43
2023-03-29T12:25:42.002Z,9.47
2023-03-29T12:28:33.246Z,9.49
2023-03-29T12:31:12.949Z,9.57
2023-03-29T12:33:57.338Z,9.73
2023-03-29T12:37:01.978Z,9.75
2023-03-29T12:40:11.815Z,9.92
2023-03-29T12:43:04.383Z,9.59
2023-03-29T12:45:56.238Z,9.59
2023-03-29T12:48:27.695Z,9.71
2023-03-29T12:51:01.844Z,9.78
2023-03-29T12:53:35.523Z,10.07
2023-03-29T12:56:14.506Z,10.15
2023-03-29T12:58:54.011Z,10.47
2023-03-29T13:01:29.179Z,10.62
2023-03-29T13:04:14.307Z,10.75
2023-03-29T13:07:02.800Z,10.54
2023-03-29T13:09:35.569Z,10.57
2023-03-29T13:12:22.768Z,10.72
2023-03-29T13:14:55.159Z,10.78
2023-03-29T13:17:28.428Z,10.40
2023-03-29T13:20:13.917Z,10.72
2023-03-29T13:22:52.624Z,10.34
2023-03-29T13:25:38.857Z,10.76
2023-03-29T13:28:16.042Z,10.65
2023-03-29T13:30:54.110Z,10.63
2023-03-29T13:33:45.786Z,10.59
2023-03-29T13:36:21.681Z,10.80
2023-03-29T13:38:53.436Z,10.73
2023-03-29T13:41:29.585Z,10.77
2023-03-29T13:43:58.718Z,10.66
2023-03-29T13:46:40.946Z,10.76
2023-03-29T13:49:18.993Z,10.76
2023-03-29T13:52:03.901Z,11.11
2023-03-29T13:54:37.478Z,11.27
2023-03-29T13:57:12.279Z,11.36
2023-03-29T13:59:49.173Z,10.98
2023-03-29T14:02:28.755Z,11.18
2023-03-29T14:04:59.876Z,11.13
2023-03-29T14:07:31.168Z,10.96
2023-03-29T14:10:01.182Z,11.04
2023-03-29T14:12:34.510Z,10.99
2023-03-29T14:15:04.947Z,11.01
2023-03-29T14:17:37.514Z,10.93
2023-03-29T14:20:09.875Z,11.00
2023-03-29T14:22:38.615Z,10.91
2023-03-29T14:25:13.873Z,10.95
2023-03-29T14:27:42.722Z,10.83
2023-03-29T14:30:23.774Z,10.62
2023-03-29T14:32:53.483Z,10.48
2023-03-29T14:35:29.429Z,10.54
2023-03-29T14:37:58.165Z,10.63
2023-03-29T14:40:27.721Z,10.58
2023-03-29T14:42:56.297Z,10.56
2023-03-29T14:45:24.775Z,10.84
2023-03-29T14:47:54.653Z,10.60
2023-03-29T14:50:26.197Z,10.22
2023-03-29T14:52:55.530Z,10.38
2023-03-29T14:55:25.158Z,10.21
2023-03-29T14:57:55.735Z,10.26
2023-03-29T15:00:28.147Z,10.15
2023-03-29T15:02:59.534Z,10.22
2023-03-29T15:05:36.315Z,10.26
2023-03-29T15:08:07.411Z,10.36
2023-03-29T15:10:37.714Z,10.28
2023-03-29T15:13:08.423Z,10.30
2023-03-29T15:15:39.109Z,10.25
2023-03-29T15:18:14.494Z,10.17
2023-03-29T15:20:44.817Z,10.28
2023-03-29T15:23:25.390Z,10.08
2023-03-29T15:25:56.363Z,10.07
2023-03-29T15:28:28.174Z,10.15
2023-03-29T15:31:07.657Z,10.05
2023-03-29T15:33:39.945Z,10.08
2023-03-29T15:36:11.223Z,10.10
2023-03-29T15:38:44.433Z,9.98
2023-03-29T15:41:14.637Z,10.15
2023-03-29T15:43:43.547Z,10.24
2023-03-29T15:46:13.082Z,10.44
2023-03-29T15:48:43.045Z,10.44
2023-03-29T15:51:12.981Z,10.48
2023-03-29T15:53:41.943Z,10.25
2023-03-29T15:56:15.315Z,10.28
2023-03-29T15:58:44.228Z,9.78
2023-03-29T16:01:34.460Z,9.67
2023-03-29T16:04:06.314Z,9.76
2023-03-29T16:06:36.244Z,9.71
2023-03-29T16:09:06.309Z,9.69
2023-03-29T16:11:34.501Z,9.56
2023-03-29T16:14:02.894Z,9.56
2023-03-29T16:16:31.382Z,9.52
2023-03-29T16:18:59.574Z,9.53
2023-03-29T16:21:29.243Z,9.52
2023-03-29T16:23:57.395Z,9.51
2023-03-29T16:26:26.658Z,9.49
2023-03-29T16:28:54.824Z,9.43
2023-03-29T16:31:25.865Z,9.35
2023-03-29T16:33:54.593Z,9.38
2023-03-29T16:36:22.875Z,9.51
2023-03-29T16:38:53.568Z,9.48
2023-03-29T16:41:22.451Z,9.29
2023-03-29T16:43:51.136Z,9.37
2023-03-29T16:46:19.372Z,9.42
2023-03-29T16:48:48.907Z,9.38
2023-03-29T16:51:17.059Z,9.31
2023-03-29T16:53:47.743Z,9.16
2023-03-29T16:56:17.864Z,9.10
2023-03-29T16:58:47.186Z,9.03
2023-03-29T17:01:17.660Z,8.91
2023-03-29T17:03:46.039Z,9.08
2023-03-29T17:06:14.165Z,8.81
2023-03-29T17:08:42.889Z,8.81
2023-03-29T17:11:11.785Z,8.64
2023-03-29T17:13:41.507Z,8.80
2023-03-29T17:16:09.807Z,8.74
2023-03-29T17:18:38.174Z,8.80
2023-03-29T17:21:07.392Z,8.72
2023-03-29T17:23:35.571Z,8.67
2023-03-29T17:26:03.928Z,8.74
2023-03-29T17:28:32.459Z,8.57
2023-03-29T17:31:04.716Z,8.47
2023-03-29T17:33:32.879Z,8.51
2023-03-29T17:38:30.360Z,8.60
2023-03-29T17:40:58.533Z,8.57
2023-03-29T17:43:26.834Z,8.52
2023-03-29T17:45:56.011Z,8.42
2023-03-29T17:48:25.939Z,8.47
2023-03-29T17:50:56.255Z,8.44
2023-03-29T17:53:24.552Z,8.39
2023-03-29T17:55:53.235Z,8.41
2023-03-29T17:58:21.605Z,8.41
2023-03-29T18:00:49.838Z,8.40
2023-03-29T18:03:18.197Z,8.57
2023-03-29T18:05:47.793Z,8.56
2023-03-29T18:08:16.779Z,8.51
2023-03-29T18:10:45.111Z,8.38
2023-03-29T18:13:14.718Z,8.42
2023-03-29T18:15:44.075Z,8.33
2023-03-29T18:18:12.339Z,8.48
2023-03-29T18:20:40.744Z,8.42
2023-03-29T18:23:10.356Z,8.30
2023-03-29T18:25:38.737Z,8.23
2023-03-29T18:28:06.909Z,8.28
2023-03-29T18:30:35.739Z,8.35
2023-03-29T18:33:04.013Z,8.33
2023-03-29T18:35:32.446Z,8.32
2023-03-29T18:38:00.771Z,8.27
2023-03-29T18:40:30.422Z,8.27
2023-03-29T18:42:58.636Z,8.49
2023-03-29T18:45:26.918Z,8.37
2023-03-29T18:47:55.207Z,8.23
2023-03-29T18:50:23.588Z,8.26
2023-03-29T18:52:52.285Z,8.23
2023-03-29T18:55:20.948Z,8.23
2023-03-29T18:57:50.572Z,8.31
2023-03-29T19:00:19.516Z,8.24
2023-03-29T19:02:48.270Z,8.22
2023-03-29T19:05:16.613Z,8.18
2023-03-29T19:07:45.084Z,8.20
2023-03-29T19:10:13.307Z,8.18
2023-03-29T19:12:41.527Z,8.27
2023-03-29T19:15:12.702Z,8.19
2023-03-29T19:17:40.904Z,8.16
2023-03-29T19:20:11.005Z,8.20
2023-03-29T19:22:39.936Z,8.08
2023-03-29T19:25:09.490Z,8.05
2023-03-29T19:27:37.669Z,8.04
2023-03-29T19:30:07.225Z,8.09
2023-03-29T19:32:36.916Z,8.11
2023-03-29T19:35:05.717Z,8.16
2023-03-29T19:37:33.830Z,8.05
2023-03-29T19:40:02.035Z,8.18
2023-03-29T19:42:30.187Z,8.07
2023-03-29T19:44:58.300Z,8.11
2023-03-29T19:47:27.064Z,8.09
2023-03-29T19:49:57.904Z,8.01
2023-03-29T19:52:27.834Z,8.02
2023-03-29T19:54:56.663Z,8.17
2023-03-29T19:57:25.490Z,8.23
2023-03-29T19:59:54.066Z,8.21
2023-03-29T20:02:22.308Z,8.02
2023-03-29T20:04:50.673Z,7.95
2023-03-29T20:07:20.236Z,7.94
2023-03-29T20:09:48.814Z,7.93
2023-03-29T20:12:16.918Z,7.92
2023-03-29T20:14:45.111Z,8.08
2023-03-29T20:17:13.460Z,7.95
2023-03-29T20:19:44.040Z,7.94
2023-03-29T20:22:13.266Z,7.85
2023-03-29T20:24:43.169Z,7.96
2023-03-29T20:27:11.291Z,8.17
2023-03-29T20:29:39.536Z,7.93
2023-03-29T20:32:09.134Z,7.96
2023-03-29T20:34:37.408Z,7.85
2023-03-29T20:37:06.294Z,7.83
2023-03-29T20:39:34.660Z,7.72
2023-03-29T20:42:04.153Z,7.85
2023-03-29T20:44:34.801Z,7.80
2023-03-29T20:47:05.095Z,7.77
2023-03-29T20:49:37.903Z,7.83
2023-03-29T20:52:08.297Z,7.90
2023-03-29T20:54:38.686Z,7.85
2023-03-29T20:57:09.200Z,7.85
2023-03-29T20:59:37.993Z,7.82
2023-03-29T21:02:06.559Z,7.62
2023-03-29T21:04:35.308Z,7.75
2023-03-29T21:07:05.085Z,7.83
2023-03-29T21:09:34.156Z,7.77
2023-03-29T21:12:03.143Z,7.83
2023-03-29T21:14:33.290Z,7.71
2023-03-29T21:17:01.605Z,7.57
2023-03-29T21:19:30.090Z,7.57
2023-03-29T21:21:58.224Z,7.59
2023-03-29T21:24:26.508Z,7.83
2023-03-29T21:26:54.758Z,7.97
2023-03-29T21:29:22.908Z,7.68
2023-03-29T21:31:52.414Z,7.55
2023-03-29T21:34:20.654Z,7.74
2023-03-29T21:36:48.838Z,7.91
2023-03-29T21:39:17.167Z,7.92
2023-03-29T21:41:45.333Z,7.69
2023-03-29T21:44:13.782Z,7.68
2023-03-29T21:46:42.003Z,7.81
2023-03-29T21:49:11.693Z,7.78
2023-03-29T21:51:39.858Z,7.73
2023-03-29T21:54:08.032Z,7.62
2023-03-29T21:56:36.190Z,7.72
2023-03-29T21:59:05.154Z,7.67
2023-03-29T22:01:33.371Z,7.67
2023-03-29T22:04:01.905Z,7.55
2023-03-29T22:06:31.428Z,7.62
2023-03-29T22:09:00.750Z,7.59
2023-03-29T22:11:29.540Z,7.63
2023-03-29T22:13:57.807Z,7.69
2023-03-29T22:16:28.087Z,7.58
2023-03-29T22:18:56.251Z,7.61
2023-03-29T22:21:26.585Z,7.63
2023-03-29T22:23:57.829Z,7.74
2023-03-29T22:26:28.440Z,7.64
2023-03-29T22:28:57.542Z,7.72
2023-03-29T22:31:27.446Z,7.61
2023-03-29T22:33:55.859Z,7.60
2023-03-29T22:36:26.866Z,7.79
2023-03-29T22:38:56.673Z,7.72
2023-03-29T22:41:27.613Z,7.72
2023-03-29T22:43:57.552Z,7.63
2023-03-29T22:46:26.525Z,7.66
2023-03-29T22:48:54.775Z,7.54
2023-03-29T22:51:22.945Z,7.64
2023-03-29T22:53:51.511Z,7.66
2023-03-29T22:56:21.845Z,7.60
2023-03-29T22:58:50.538Z,7.56
2023-03-29T23:01:18.808Z,7.55
2023-03-29T23:03:47.433Z,7.50
2023-03-29T23:06:15.579Z,7.69
2023-03-29T23:08:43.880Z,7.51
2023-03-29T23:11:12.368Z,7.63
2023-03-29T23:13:41.871Z,7.70
2023-03-29T23:16:10.389Z,7.59
2023-03-29T23:18:38.803Z,7.77
2023-03-29T23:21:08.897Z,7.68
2023-03-29T23:23:37.095Z,7.64
2023-03-29T23:26:06.525Z,7.67
2023-03-29T23:28:34.935Z,7.69
2023-03-29T23:31:07.000Z,7.72
2023-03-29T23:33:38.466Z,7.77
2023-03-29T23:36:08.872Z,7.57
2023-03-29T23:38:38.745Z,7.75
2023-03-29T23:41:10.815Z,7.62
2023-03-29T23:43:43.773Z,7.66
2023-03-29T23:46:15.374Z,7.67
2023-03-29T23:48:45.863Z,7.70
2023-03-29T23:51:14.108Z,7.69
2023-03-29T23:53:42.407Z,7.87
2023-03-29T23:56:10.637Z,7.81
2023-03-29T23:58:39.116Z,7.61
